Time;durP1;ratioP1;P1;durP2;ratioP2;P2;SDS_P1;SDS_P2;PMS_P1;PMS_P2;Temp;Humidity;BMP_temperature;BMP_pressure;BME280_temperature;BME280_humidity;BME280_pressure;Samples;Min_cycle;Max_cycle;Signal;HPM_P1;HPM_P2
2023/10/03 00:00:58;;;;;;;28.73;17.80;;;;;;;18.30;100.00;100747.50;5010908;28;20042;-47
2023/10/03 00:03:23;;;;;;;30.88;17.10;;;;;;;18.32;100.00;100751.75;5009521;28;20033;-47
2023/10/03 00:05:51;;;;;;;31.48;17.83;;;;;;;18.25;100.00;100752.25;5011936;28;20045;-49
2023/10/03 00:08:17;;;;;;;32.17;17.25;;;;;;;17.96;100.00;100691.09;4976643;28;20065;-53
2023/10/03 00:10:42;;;;;;;30.77;17.35;;;;;;;17.89;100.00;100683.59;5011388;28;20057;-48
2023/10/03 00:13:09;;;;;;;29.10;18.38;;;;;;;17.94;100.00;100697.47;4991009;28;20030;-53
2023/10/03 00:15:35;;;;;;;30.02;17.38;;;;;;;18.20;100.00;100746.38;4998742;28;20040;-50
2023/10/03 00:18:01;;;;;;;29.65;17.33;;;;;;;17.67;100.00;100653.97;4983953;28;20042;-51
2023/10/03 00:20:27;;;;;;;27.98;17.60;;;;;;;18.17;100.00;100752.75;5007037;28;20129;-49
2023/10/03 00:22:53;;;;;;;31.05;17.60;;;;;;;18.07;100.00;100722.34;4978423;28;20113;-48
2023/10/03 00:25:19;;;;;;;29.67;17.25;;;;;;;17.85;100.00;100688.28;5012555;28;20122;-47
2023/10/03 00:27:51;;;;;;;30.15;16.92;;;;;;;18.16;100.00;100736.84;5012605;28;20033;-49
2023/10/03 00:30:20;;;;;;;28.85;17.65;;;;;;;18.19;100.00;100720.69;4995463;28;20059;-49
2023/10/03 00:32:48;;;;;;;31.63;17.80;;;;;;;18.13;100.00;100700.63;4994914;28;20068;-51
2023/10/03 00:35:15;;;;;;;30.50;17.17;;;;;;;17.87;100.00;100646.41;5012358;28;20034;-50
2023/10/03 00:37:40;;;;;;;33.40;18.73;;;;;;;17.97;100.00;100655.53;4995297;28;20029;-48
2023/10/03 00:42:52;;;;;;;27.17;16.13;;;;;;;17.89;100.00;100623.19;5011208;28;20535;-49
2023/10/03 00:45:25;;;;;;;25.98;16.40;;;;;;;18.33;100.00;100702.00;4978824;28;20085;-50
2023/10/03 00:47:55;;;;;;;24.20;15.55;;;;;;;18.26;100.00;100672.22;5012156;28;20108;-50
2023/10/03 00:50:25;;;;;;;28.27;17.35;;;;;;;18.08;100.00;100619.31;5012203;28;20041;-48
2023/10/03 00:53:10;;;;;;;25.73;15.23;;;;;;;18.49;100.00;100690.22;5012295;28;20095;-50
2023/10/03 00:55:41;;;;;;;30.48;17.13;;;;;;;18.23;100.00;100607.63;4994840;28;20026;-49
2023/10/03 01:00:38;;;;;;;26.97;17.47;;;;;;;18.78;100.00;100676.72;4992499;28;20034;-47
2023/10/03 01:03:05;;;;;;;26.83;16.10;;;;;;;18.82;100.00;100664.91;4992763;28;20026;-52
2023/10/03 01:05:31;;;;;;;30.50;15.75;;;;;;;18.88;100.00;100659.13;4975115;28;20030;-48
2023/10/03 01:07:56;;;;;;;29.50;16.30;;;;;;;18.50;100.00;100587.13;4992787;28;20022;-51
2023/10/03 01:10:22;;;;;;;29.08;16.60;;;;;;;18.58;100.00;100575.94;4992581;28;20034;-49
2023/10/03 01:12:49;;;;;;;27.67;16.35;;;;;;;18.95;100.00;100633.72;4992183;28;20038;-51
2023/10/03 01:15:16;;;;;;;25.92;15.75;;;;;;;18.84;100.00;100610.50;4978123;28;20050;-47
2023/10/03 01:17:46;;;;;;;29.05;17.38;;;;;;;18.65;100.00;100569.22;4994185;28;20058;-50
2023/10/03 01:20:23;;;;;;;27.48;15.73;;;;;;;19.03;100.00;100624.22;5011831;28;20042;-53
2023/10/03 01:22:51;;;;;;;28.17;16.90;;;;;;;18.68;100.00;100577.84;5011898;28;20036;-46
2023/10/03 01:25:16;;;;;;;31.02;17.20;;;;;;;19.05;100.00;100642.81;5011832;28;20120;-47
2023/10/03 01:27:42;;;;;;;27.08;16.10;;;;;;;19.02;100.00;100641.22;5015507;28;20121;-48
2023/10/03 01:30:08;;;;;;;29.88;16.20;;;;;;;18.73;100.00;100561.53;5014966;28;20072;-46
2023/10/03 01:32:57;;;;;;;31.58;16.15;;;;;;;19.08;100.00;100639.91;4998047;28;20045;-49
2023/10/03 01:35:23;;;;;;;27.00;16.27;;;;;;;19.10;100.00;100646.84;4997961;28;20421;-48
2023/10/03 01:37:49;;;;;;;26.63;15.73;;;;;;;18.71;100.00;100576.81;5014398;28;20034;-49
2023/10/03 01:40:16;;;;;;;27.23;15.85;;;;;;;18.83;100.00;100590.09;4997886;28;20026;-49
2023/10/03 01:42:45;;;;;;;27.85;15.85;;;;;;;18.77;100.00;100552.34;5015373;28;20034;-50
2023/10/03 01:45:17;;;;;;;28.33;16.77;;;;;;;18.94;100.00;100579.53;5015190;28;20079;-47
2023/10/03 01:47:48;;;;;;;28.50;16.38;;;;;;;19.33;100.00;100628.34;4997051;28;20049;-49
2023/10/03 01:50:14;;;;;;;27.40;15.75;;;;;;;19.00;100.00;100579.09;5015308;28;20354;-51
2023/10/03 01:52:40;;;;;;;27.30;14.77;;;;;;;19.45;100.00;100636.38;4997614;28;20037;-49
2023/10/03 01:55:08;;;;;;;27.15;15.05;;;;;;;18.79;100.00;100511.31;5015228;28;20038;-50
2023/10/03 01:57:33;;;;;;;22.25;13.73;;;;;;;19.54;100.00;100617.00;5015141;28;20030;-50
2023/10/03 01:59:59;;;;;;;27.20;13.75;;;;;;;19.31;100.00;100551.06;4997630;28;20045;-48
2023/10/03 02:02:24;;;;;;;25.23;15.10;;;;;;;19.83;100.00;100614.88;5013975;28;20493;-49
2023/10/03 02:04:50;;;;;;;25.77;14.40;;;;;;;19.49;100.00;100548.91;5014966;28;20042;-50
2023/10/03 02:07:16;;;;;;;31.05;14.48;;;;;;;19.51;100.00;100542.47;5014846;28;20116;-50
2023/10/03 02:09:43;;;;;;;22.92;13.38;;;;;;;19.53;100.00;100531.69;5015084;28;20026;-49
2023/10/03 02:12:10;;;;;;;24.23;13.60;;;;;;;19.96;100.00;100580.09;5014948;28;20038;-48
2023/10/03 02:14:36;;;;;;;26.70;14.10;;;;;;;20.09;100.00;100603.09;4997744;28;20026;-53
2023/10/03 02:17:01;;;;;;;24.25;13.38;;;;;;;20.04;100.00;100599.91;4997017;28;20424;-54
2023/10/03 02:19:27;;;;;;;22.42;14.88;;;;;;;19.97;100.00;100571.09;5013748;28;20125;-50
2023/10/03 02:21:59;;;;;;;22.50;13.57;;;;;;;20.05;100.00;100590.09;5014496;28;20431;-52
2023/10/03 02:24:25;;;;;;;23.08;13.68;;;;;;;19.94;100.00;100568.63;5014797;28;20084;-52
2023/10/03 02:26:50;;;;;;;23.65;12.63;;;;;;;19.72;100.00;100523.16;5014723;28;20034;-51
2023/10/03 02:29:15;;;;;;;24.48;13.07;;;;;;;19.96;100.00;100564.91;4997213;28;20036;-50
2023/10/03 02:31:42;;;;;;;22.90;13.88;;;;;;;19.51;100.00;100499.78;5014506;28;20042;-54
2023/10/03 02:34:08;;;;;;;23.73;13.15;;;;;;;19.90;100.00;100580.53;4997051;28;20034;-48
2023/10/03 02:36:33;;;;;;;18.88;11.70;;;;;;;19.56;100.00;100531.44;5013600;28;20038;-50
2023/10/03 02:39:00;;;;;;;21.95;12.77;;;;;;;19.44;100.00;100516.38;5013383;28;20030;-48
2023/10/03 02:41:25;;;;;;;21.85;11.77;;;;;;;19.50;100.00;100556.78;5014344;28;20096;-52
2023/10/03 02:43:51;;;;;;;17.83;10.73;;;;;;;19.42;100.00;100527.13;4996814;28;20478;-48
2023/10/03 02:46:17;;;;;;;18.80;9.85;;;;;;;19.48;100.00;100549.84;5014154;28;20038;-52
2023/10/03 02:48:43;;;;;;;14.93;9.93;;;;;;;19.45;100.00;100536.72;5014105;28;20470;-51
2023/10/03 02:51:12;;;;;;;14.23;7.88;;;;;;;19.86;100.00;100587.94;5013367;28;20123;-51
2023/10/03 02:53:38;;;;;;;14.05;7.60;;;;;;;19.92;100.00;100626.69;5014146;28;20038;-50
2023/10/03 02:56:04;;;;;;;13.93;7.10;;;;;;;19.51;100.00;100553.16;4996242;28;20491;-49
2023/10/03 02:58:29;;;;;;;17.27;7.45;;;;;;;19.45;100.00;100539.41;5013981;28;20041;-51
2023/10/03 03:00:56;;;;;;;15.13;6.63;;;;;;;19.83;100.00;100603.31;5013882;28;20098;-50
2023/10/03 03:03:32;;;;;;;13.65;6.55;;;;;;;19.30;100.00;100535.16;5013801;28;20081;-50
2023/10/03 03:05:59;;;;;;;16.00;7.25;;;;;;;19.57;100.00;100600.78;5013854;28;20049;-51
2023/10/03 03:08:27;;;;;;;22.65;8.07;;;;;;;19.64;100.00;100602.00;5012775;28;20030;-55
2023/10/03 03:10:55;;;;;;;18.23;7.40;;;;;;;19.55;100.00;100613.38;4996134;28;20374;-47
2023/10/03 03:13:23;;;;;;;13.07;7.05;;;;;;;19.26;100.00;100549.69;5013818;28;20044;-51
2023/10/03 03:16:00;;;;;;;19.50;8.77;;;;;;;19.51;100.00;100605.69;5013790;28;20050;-49
2023/10/03 03:18:40;;;;;;;18.98;7.70;;;;;;;19.10;100.00;100553.47;5013739;28;20045;-49
2023/10/03 03:21:13;;;;;;;17.35;7.40;;;;;;;19.37;100.00;100598.66;5013525;28;20141;-48
2023/10/03 03:23:42;;;;;;;24.17;8.18;;;;;;;19.25;100.00;100585.34;5012150;28;20096;-50
2023/10/03 03:28:36;;;;;;;23.45;7.95;;;;;;;18.92;100.00;100553.94;5013583;28;20464;-51
2023/10/03 03:31:02;;;;;;;23.38;9.20;;;;;;;18.84;100.00;100558.97;5013439;28;20113;-50
2023/10/03 03:33:27;;;;;;;23.80;7.03;;;;;;;18.78;100.00;100564.72;5013314;28;20041;-49
2023/10/03 03:35:54;;;;;;;21.77;7.70;;;;;;;19.03;100.00;100610.06;5013232;28;20064;-49
2023/10/03 03:38:20;;;;;;;24.42;8.25;;;;;;;18.84;100.00;100593.63;5012191;28;20058;-49
2023/10/03 03:40:46;;;;;;;20.75;6.65;;;;;;;18.48;100.00;100546.34;5013144;28;20034;-49
2023/10/03 03:43:14;;;;;;;21.13;7.78;;;;;;;18.44;100.00;100539.56;4995792;28;20036;-49
2023/10/03 03:45:40;;;;;;;19.33;7.07;;;;;;;18.62;100.00;100583.63;5013351;28;20033;-50
2023/10/03 03:48:06;;;;;;;22.50;7.07;;;;;;;18.48;100.00;100559.69;5013160;28;20061;-49
2023/10/03 03:50:31;;;;;;;20.20;7.72;;;;;;;18.84;100.00;100605.16;5013000;28;20161;-52
2023/10/03 03:52:58;;;;;;;22.05;7.72;;;;;;;18.86;100.00;100621.03;5013033;28;20037;-51
2023/10/03 03:55:27;;;;;;;24.35;8.68;;;;;;;18.83;100.00;100614.09;5011820;28;20112;-47
2023/10/03 03:57:52;;;;;;;20.27;7.45;;;;;;;18.74;100.00;100588.09;4979738;28;20434;-49
2023/10/03 04:00:22;;;;;;;19.65;7.78;;;;;;;18.88;100.00;100605.81;5012921;28;20080;-46
2023/10/03 04:02:48;;;;;;;18.20;6.68;;;;;;;18.87;100.00;100604.09;5012914;28;20042;-47
2023/10/03 04:05:16;;;;;;;18.05;7.97;;;;;;;18.84;100.00;100615.81;4995456;28;20069;-46
2023/10/03 04:07:42;;;;;;;20.85;6.85;;;;;;;18.40;100.00;100548.72;5012864;28;20363;-51
2023/10/03 04:10:12;;;;;;;16.20;6.78;;;;;;;18.73;100.00;100614.88;5012635;28;20045;-51
2023/10/03 04:12:41;;;;;;;19.25;6.90;;;;;;;18.59;100.00;100578.50;4979998;28;20062;-53
2023/10/03 04:15:13;;;;;;;19.75;7.65;;;;;;;18.64;100.00;100600.38;4993152;28;20045;-47
2023/10/03 04:17:42;;;;;;;15.90;6.82;;;;;;;18.41;100.00;100553.09;4976325;28;20050;-49
2023/10/03 04:22:41;;;;;;;19.30;7.35;;;;;;;18.64;100.00;100624.34;4992859;28;20046;-48
2023/10/03 04:25:12;;;;;;;19.58;7.05;;;;;;;18.62;100.00;100614.75;4992982;28;20084;-47
2023/10/03 04:27:38;;;;;;;15.90;6.45;;;;;;;18.21;100.00;100550.94;4993178;28;20038;-48
2023/10/03 04:30:04;;;;;;;19.63;6.68;;;;;;;18.26;100.00;100564.78;4977208;28;20037;-48
2023/10/03 04:32:29;;;;;;;15.85;6.90;;;;;;;18.65;100.00;100633.22;5012450;28;20034;-48
2023/10/03 04:34:55;;;;;;;13.27;6.32;;;;;;;18.29;100.00;100562.78;5012412;28;20418;-48
2023/10/03 04:37:20;;;;;;;15.48;6.38;;;;;;;18.39;100.00;100582.50;4994795;28;20104;-48
2023/10/03 04:39:45;;;;;;;12.02;5.93;;;;;;;18.35;100.00;100550.84;5012245;28;20045;-53
2023/10/03 04:42:13;;;;;;;16.00;6.47;;;;;;;18.52;100.00;100588.75;5012415;28;20465;-49
2023/10/03 04:44:38;;;;;;;11.85;5.18;;;;;;;18.73;100.00;100613.06;4994224;28;20515;-48
2023/10/03 04:47:04;;;;;;;18.88;6.35;;;;;;;18.70;100.00;100609.75;5012213;28;20033;-49
2023/10/03 04:49:29;;;;;;;12.90;4.95;;;;;;;18.73;100.00;100626.38;5012140;28;20041;-47
2023/10/03 04:51:54;;;;;;;12.43;5.20;;;;;;;18.70;100.00;100634.59;5012356;28;20458;-47
2023/10/03 04:54:20;;;;;;;16.38;5.18;;;;;;;18.37;100.00;100587.09;5012418;28;20477;-46
2023/10/03 04:56:45;;;;;;;13.15;4.82;;;;;;;18.32;100.00;100583.03;5012363;28;20042;-47
2023/10/03 04:59:11;;;;;;;8.27;4.43;;;;;;;18.31;100.00;100579.50;5012426;28;20042;-48
2023/10/03 05:01:36;;;;;;;13.88;5.03;;;;;;;18.59;100.00;100647.81;5013356;28;20037;-47
2023/10/03 05:04:03;;;;;;;11.15;4.85;;;;;;;18.31;100.00;100591.97;5015914;28;20037;-49
2023/10/03 05:06:29;;;;;;;16.17;5.10;;;;;;;18.64;100.00;100669.69;4999171;28;20038;-51
2023/10/03 05:08:55;;;;;;;12.63;4.53;;;;;;;18.61;100.00;100659.22;5016356;28;20718;-50
2023/10/03 05:11:20;;;;;;;10.95;4.45;;;;;;;18.30;100.00;100596.44;5015878;28;20041;-51
2023/10/03 05:13:45;;;;;;;7.70;4.50;;;;;;;18.25;100.00;100611.91;4998437;28;20184;-53
2023/10/03 05:16:11;;;;;;;12.43;4.47;;;;;;;18.52;100.00;100633.19;4998039;28;20116;-50
2023/10/03 05:18:36;;;;;;;9.27;4.35;;;;;;;18.59;100.00;100674.47;5014805;28;20042;-49
2023/10/03 05:21:03;;;;;;;9.05;4.05;;;;;;;18.13;100.00;100570.09;5016053;28;20034;-51
2023/10/03 05:23:29;;;;;;;16.73;4.57;;;;;;;18.19;100.00;100598.13;5015515;28;20566;-50
2023/10/03 05:25:54;;;;;;;10.77;3.97;;;;;;;18.59;100.00;100673.63;5015689;28;20137;-49
2023/10/03 05:28:20;;;;;;;9.00;4.35;;;;;;;18.09;100.00;100579.28;5015520;28;20124;-49
2023/10/03 05:30:45;;;;;;;10.30;4.32;;;;;;;18.56;100.00;100673.81;5015021;28;20164;-47
2023/10/03 05:33:10;;;;;;;12.27;4.40;;;;;;;18.29;100.00;100626.72;5015308;28;20034;-47
2023/10/03 05:35:36;;;;;;;9.85;4.30;;;;;;;18.06;100.00;100630.09;5013890;28;20041;-50
2023/10/03 05:38:08;;;;;;;8.57;3.97;;;;;;;17.90;100.00;100621.38;4997946;28;20401;-47
2023/10/03 05:40:34;;;;;;;8.82;4.15;;;;;;;18.14;100.00;100693.50;5014041;28;20117;-53
2023/10/03 05:43:01;;;;;;;9.68;4.13;;;;;;;17.66;100.00;100623.00;5015081;28;20409;-49
2023/10/03 05:45:27;;;;;;;10.40;3.67;;;;;;;17.97;100.00;100702.59;5014796;28;20437;-46
2023/10/03 05:47:52;;;;;;;13.25;3.88;;;;;;;17.95;100.00;100700.00;5015444;28;20057;-49
2023/10/03 05:50:23;;;;;;;11.60;3.72;;;;;;;17.89;100.00;100716.38;5015535;28;20374;-50
2023/10/03 05:52:49;;;;;;;11.75;4.13;;;;;;;17.87;100.00;100723.63;5014284;28;20041;-52
2023/10/03 05:55:15;;;;;;;11.00;3.22;;;;;;;17.79;100.00;100709.09;4997762;28;20045;-47
2023/10/03 05:57:42;;;;;;;6.65;2.70;;;;;;;17.51;100.00;100639.94;5014806;28;20069;-47
2023/10/03 06:00:16;;;;;;;4.18;2.38;;;;;;;17.38;100.00;100623.88;4995882;28;20172;-47
2023/10/03 06:02:43;;;;;;;4.35;1.75;;;;;;;17.86;100.00;100715.75;4996298;28;20037;-47
2023/10/03 06:05:09;;;;;;;5.00;1.90;;;;;;;17.93;100.00;100743.69;4996406;28;20030;-47
2023/10/03 06:07:36;;;;;;;7.22;2.33;;;;;;;17.90;100.00;100725.25;5013730;28;20045;-48
2023/10/03 06:10:04;;;;;;;5.45;2.13;;;;;;;17.97;100.00;100753.19;4995592;28;20477;-48
2023/10/03 06:12:29;;;;;;;5.68;2.15;;;;;;;17.65;100.00;100683.38;4997449;28;20042;-49
2023/10/03 06:14:55;;;;;;;8.55;2.50;;;;;;;17.61;100.00;100673.88;4996812;28;20034;-48
2023/10/03 06:17:20;;;;;;;7.28;2.22;;;;;;;18.03;100.00;100773.25;5014493;28;20263;-50
2023/10/03 06:19:46;;;;;;;6.85;2.70;;;;;;;17.65;100.00;100704.66;5014417;28;20037;-51
2023/10/03 06:22:12;;;;;;;7.20;2.83;;;;;;;17.91;100.00;100751.78;5014288;28;20045;-46
2023/10/03 06:24:38;;;;;;;8.45;2.80;;;;;;;17.99;100.00;100780.56;5013400;28;20065;-52
2023/10/03 06:27:07;;;;;;;7.45;2.92;;;;;;;17.95;100.00;100779.91;4996613;28;20053;-48
2023/10/03 06:29:34;;;;;;;7.43;2.67;;;;;;;17.85;100.00;100784.13;4996490;28;20034;-48
2023/10/03 06:32:00;;;;;;;9.05;2.80;;;;;;;17.69;100.00;100756.75;5014475;28;20137;-48
2023/10/03 06:34:25;;;;;;;10.55;2.80;;;;;;;17.77;100.00;100778.44;4996603;28;20125;-53
2023/10/03 06:36:50;;;;;;;11.35;3.50;;;;;;;17.74;100.00;100772.44;5013992;28;20065;-47
2023/10/03 06:39:16;;;;;;;13.73;3.47;;;;;;;17.78;100.00;100800.56;5014081;28;20486;-52
2023/10/03 06:41:41;;;;;;;8.00;3.05;;;;;;;17.71;100.00;100780.63;5013783;28;20034;-47
2023/10/03 06:44:06;;;;;;;8.85;2.67;;;;;;;17.24;100.00;100720.53;5012312;28;20053;-50
2023/10/03 06:46:34;;;;;;;9.55;2.78;;;;;;;17.32;100.00;100755.50;5013684;28;20044;-46
2023/10/03 06:48:59;;;;;;;12.82;2.72;;;;;;;17.59;100.00;100813.31;5013629;28;20477;-46
2023/10/03 06:51:25;;;;;;;9.15;2.63;;;;;;;16.36;100.00;100639.94;5013853;28;20087;-48
2023/10/03 06:53:52;;;;;;;6.40;2.28;;;;;;;17.44;100.00;100836.38;5013826;28;20042;-50
2023/10/03 06:56:19;;;;;;;8.25;2.67;;;;;;;16.88;100.00;100778.59;5013428;28;20045;-49
2023/10/03 06:58:44;;;;;;;7.93;2.42;;;;;;;16.79;100.00;100798.59;5012586;28;20037;-54
2023/10/03 07:01:11;;;;;;;11.07;2.42;;;;;;;16.96;100.00;100850.78;5013738;28;20037;-48
2023/10/03 07:03:37;;;;;;;5.13;1.88;;;;;;;16.79;100.00;100861.53;5013443;28;20041;-47
2023/10/03 07:06:02;;;;;;;8.18;1.88;;;;;;;16.71;100.00;100882.38;5013670;28;20540;-48
2023/10/03 07:08:28;;;;;;;5.82;2.00;;;;;;;16.69;100.00;100886.94;5013237;28;20460;-54
2023/10/03 07:10:55;;;;;;;6.68;1.75;;;;;;;16.52;100.00;100879.88;5013500;28;20038;-50
2023/10/03 07:13:20;;;;;;;7.03;2.03;;;;;;;16.16;100.00;100820.84;4995561;28;20046;-47
2023/10/03 07:15:45;;;;;;;6.57;2.00;;;;;;;16.52;100.00;100887.84;5011989;28;20045;-49
2023/10/03 07:18:11;;;;;;;5.78;1.33;;;;;;;16.47;100.00;100881.06;5013354;28;20054;-51
2023/10/03 07:20:36;;;;;;;6.18;1.70;;;;;;;16.12;100.00;100819.28;4995761;28;20038;-47
2023/10/03 07:23:02;;;;;;;8.25;2.05;;;;;;;16.69;100.00;100910.88;5012924;28;20069;-52
2023/10/03 07:25:30;;;;;;;7.38;1.88;;;;;;;16.72;100.00;100930.13;4995175;28;20065;-51
2023/10/03 07:27:55;;;;;;;6.60;2.05;;;;;;;16.42;100.00;100878.69;4995571;28;20405;-50
2023/10/03 07:30:20;;;;;;;8.45;1.95;;;;;;;16.51;100.00;100906.53;5013230;28;20034;-47
2023/10/03 07:32:47;;;;;;;8.27;2.55;;;;;;;16.17;100.00;100876.50;5012064;28;20432;-46
2023/10/03 07:35:16;;;;;;;9.50;2.03;;;;;;;16.45;100.00;100946.72;5012826;28;20281;-47
2023/10/03 07:37:42;;;;;;;4.97;1.38;;;;;;;16.40;100.00;100951.44;5011610;28;20073;-45
2023/10/03 07:40:08;;;;;;;7.82;2.17;;;;;;;16.27;100.00;100943.28;5011186;28;20080;-49
2023/10/03 07:42:34;;;;;;;6.22;1.80;;;;;;;16.18;100.00;100944.63;5012194;28;20424;-47
2023/10/03 07:44:59;;;;;;;4.13;1.77;;;;;;;15.93;100.00;100896.44;4978222;28;20053;-48
2023/10/03 07:47:24;;;;;;;6.88;2.17;;;;;;;15.97;100.00;100892.66;5010723;28;20041;-49
2023/10/03 07:49:51;;;;;;;4.60;1.30;;;;;;;16.42;100.00;100966.34;5012279;28;20378;-52
2023/10/03 07:52:17;;;;;;;7.28;1.70;;;;;;;16.63;100.00;100994.47;5012768;28;20034;-48
2023/10/03 07:54:46;;;;;;;5.75;1.85;;;;;;;16.68;100.00;101013.66;5012842;28;20036;-47
2023/10/03 07:57:13;;;;;;;4.95;1.55;;;;;;;16.61;100.00;101035.31;5012539;28;20497;-47
2023/10/03 07:59:38;;;;;;;4.97;1.35;;;;;;;16.41;100.00;101052.31;5012844;28;20033;-47
2023/10/03 08:02:05;;;;;;;4.15;1.05;;;;;;;16.10;100.00;101025.66;5012616;28;20461;-47
2023/10/03 08:04:33;;;;;;;4.22;0.82;;;;;;;15.98;100.00;101050.19;4993980;28;20532;-48
2023/10/03 08:06:59;;;;;;;3.67;1.25;;;;;;;15.87;100.00;101055.19;5012517;28;20030;-46
2023/10/03 08:09:25;;;;;;;3.72;1.10;;;;;;;15.73;100.00;101075.28;4994696;28;20080;-50
2023/10/03 08:11:52;;;;;;;4.75;0.90;;;;;;;15.66;100.00;101071.25;4994807;28;20112;-46
2023/10/03 08:14:18;;;;;;;3.22;0.88;;;;;;;15.28;100.00;101031.56;5012538;28;20420;-45
2023/10/03 08:16:45;;;;;;;2.78;0.75;;;;;;;14.95;100.00;100989.84;5012259;28;20142;-48
2023/10/03 08:19:21;;;;;;;2.85;0.85;;;;;;;15.39;100.00;101093.78;4993920;28;20371;-46
2023/10/03 08:21:50;;;;;;;4.43;1.10;;;;;;;15.34;100.00;101094.94;5012286;28;20599;-47
2023/10/03 08:24:19;;;;;;;4.28;1.00;;;;;;;15.33;100.00;101099.38;5012089;28;20041;-49
2023/10/03 08:26:46;;;;;;;7.88;1.73;;;;;;;15.23;100.00;101083.03;5012315;28;20092;-46
2023/10/03 08:29:21;;;;;;;6.25;1.15;;;;;;;15.10;100.00;101058.03;4994925;28;20548;-46
2023/10/03 08:31:49;;;;;;;4.43;1.00;;;;;;;15.11;100.00;101058.91;5012359;28;20091;-48
2023/10/03 08:34:19;;;;;;;6.80;1.60;;;;;;;15.01;100.00;101039.91;5011072;28;20482;-45
2023/10/03 08:36:45;;;;;;;4.20;1.08;;;;;;;15.29;100.00;101092.50;5011182;28;20038;-47
2023/10/03 08:39:13;;;;;;;7.25;1.33;;;;;;;15.53;100.00;101130.28;5012301;28;20038;-46
2023/10/03 08:41:58;;;;;;;6.75;1.60;;;;;;;15.56;100.00;101138.94;5012196;28;20048;-48
2023/10/03 08:44:24;;;;;;;7.60;1.63;;;;;;;15.12;100.00;101060.59;4994335;28;20397;-47
2023/10/03 08:46:55;;;;;;;10.00;1.90;;;;;;;15.34;100.00;101105.53;5011936;28;20038;-48
2023/10/03 08:49:26;;;;;;;10.57;1.30;;;;;;;14.96;100.00;101064.94;4994858;28;20503;-45
2023/10/03 08:51:52;;;;;;;5.07;1.10;;;;;;;15.36;100.00;101133.72;4977589;28;20072;-45
2023/10/03 08:54:18;;;;;;;5.13;1.50;;;;;;;15.20;100.00;101098.25;5012047;28;20512;-49
2023/10/03 08:56:43;;;;;;;3.50;1.30;;;;;;;15.53;100.00;101157.66;5012202;28;20033;-48
2023/10/03 08:59:09;;;;;;;6.72;2.05;;;;;;;15.11;100.00;101094.25;5011861;28;20042;-49
2023/10/03 09:01:43;;;;;;;7.65;1.75;;;;;;;15.67;100.00;101160.50;5011834;28;20042;-46
2023/10/03 09:04:15;;;;;;;9.68;1.65;;;;;;;15.40;100.00;101116.72;5011937;28;20450;-47
2023/10/03 09:06:47;;;;;;;4.72;1.00;;;;;;;15.73;100.00;101180.63;4994890;28;20111;-48
2023/10/03 09:09:13;;;;;;;3.88;1.00;;;;;;;15.30;100.00;101131.34;5010710;28;20041;-49
2023/10/03 09:11:41;;;;;;;3.45;0.70;;;;;;;15.58;100.00;101218.50;4976995;28;20417;-47
2023/10/03 09:14:08;;;;;;;3.90;0.90;;;;;;;14.98;100.00;101154.03;4994450;28;20037;-48
2023/10/03 09:16:39;;;;;;;4.72;0.95;;;;;;;15.10;100.00;101213.59;5011997;28;20034;-48
2023/10/03 09:19:13;;;;;;;;;;;;;;;15.01;100.00;101229.91;5011951;28;20496;-48
2023/10/03 09:21:38;;;;;;;3.25;0.90;;;;;;;14.79;100.00;101216.78;5011707;28;19963;-46
2023/10/03 09:24:17;;;;;;;4.03;1.10;;;;;;;14.75;100.00;101222.25;5011541;28;20425;-48
2023/10/03 09:26:52;;;;;;;6.80;1.70;;;;;;;14.79;100.00;101261.81;4995691;28;20113;-45
2023/10/03 09:29:30;;;;;;;8.32;1.50;;;;;;;14.70;100.00;101235.72;4993464;28;20281;-49
2023/10/03 09:31:58;;;;;;;4.53;1.23;;;;;;;14.46;100.00;101181.13;5011734;28;20426;-50
2023/10/03 09:34:32;;;;;;;5.43;1.45;;;;;;;14.89;100.00;101251.66;5011490;28;20080;-47
2023/10/03 09:37:04;;;;;;;7.43;1.20;;;;;;;14.64;100.00;101212.13;5011475;28;20034;-46
2023/10/03 09:39:30;;;;;;;5.22;1.73;;;;;;;14.98;100.00;101253.91;5009615;28;20401;-47
2023/10/03 09:41:57;;;;;;;4.50;1.85;;;;;;;15.03;100.00;101265.19;4994101;28;20026;-47
2023/10/03 09:44:32;;;;;;;4.45;1.20;;;;;;;14.67;100.00;101209.34;5011341;28;20037;-48
2023/10/03 09:47:00;;;;;;;5.78;1.20;;;;;;;14.57;100.00;101192.13;5012451;28;20452;-49
2023/10/03 09:49:36;;;;;;;6.40;1.30;;;;;;;14.99;100.00;101276.84;5014937;28;20092;-47
2023/10/03 09:52:27;;;;;;;4.68;1.55;;;;;;;14.98;100.00;101286.59;4998634;28;20037;-50
2023/10/03 09:54:54;;;;;;;5.07;1.50;;;;;;;14.65;100.00;101229.75;4999696;28;20092;-52
2023/10/03 09:57:21;;;;;;;2.65;1.33;;;;;;;14.49;100.00;101226.03;4996372;28;20038;-46
2023/10/03 09:59:47;;;;;;;6.57;1.80;;;;;;;14.54;100.00;101234.63;5014998;28;20125;-48
2023/10/03 10:02:14;;;;;;;9.10;1.95;;;;;;;14.92;100.00;101299.25;4997043;28;20544;-46
2023/10/03 10:04:41;;;;;;;8.73;2.45;;;;;;;14.55;100.00;101253.13;5014763;28;20026;-47
2023/10/03 10:07:19;;;;;;;7.80;2.35;;;;;;;14.83;100.00;101303.16;4997142;28;20076;-46
2023/10/03 10:10:07;;;;;;;7.88;1.90;;;;;;;14.88;100.00;101301.19;4998668;28;20044;-47
2023/10/03 10:12:37;;;;;;;7.05;1.92;;;;;;;14.63;100.00;101224.50;5013624;28;20030;-47
2023/10/03 10:17:41;;;;;;;8.88;2.88;;;;;;;15.32;100.00;101307.22;5015012;28;20408;-51
2023/10/03 10:20:17;;;;;;;7.53;2.38;;;;;;;15.35;100.00;101309.72;5014588;28;20120;-46
2023/10/03 10:22:58;;;;;;;10.07;2.83;;;;;;;15.34;100.00;101320.38;5014285;28;20420;-48
2023/10/03 10:25:25;;;;;;;5.90;2.40;;;;;;;15.35;100.00;101327.41;5014503;28;20037;-47
2023/10/03 10:28:01;;;;;;;5.03;2.28;;;;;;;14.90;100.00;101262.22;5014555;28;20397;-49
2023/10/03 10:30:26;;;;;;;9.57;2.67;;;;;;;15.23;100.00;101334.97;4996329;28;20173;-48
2023/10/03 10:33:16;;;;;;;5.50;2.60;;;;;;;15.26;100.00;101347.25;4994776;28;20509;-51
2023/10/03 10:35:54;;;;;;;9.05;2.88;;;;;;;15.23;100.00;101364.13;4977589;28;20597;-52
2023/10/03 10:38:32;;;;;;;7.57;2.67;;;;;;;15.08;100.00;101372.78;4994715;28;20029;-47
2023/10/03 10:41:22;;;;;;;10.70;2.78;;;;;;;14.95;100.00;101375.97;4994732;28;20073;-47
2023/10/03 10:44:08;;;;;;;11.52;3.13;;;;;;;14.76;100.00;101389.16;4994791;28;20072;-45
2023/10/03 10:46:36;;;;;;;7.15;2.78;;;;;;;14.56;100.00;101389.94;5013073;28;20038;-47
2023/10/03 10:49:06;;;;;;;10.75;3.70;;;;;;;14.21;100.00;101336.63;4995505;28;20038;-45
2023/10/03 10:51:32;;;;;;;13.98;4.13;;;;;;;14.50;100.00;101418.47;5001728;28;20396;-45
2023/10/03 10:53:58;;;;;;;8.00;3.33;;;;;;;14.49;100.00;101414.09;4996219;28;20375;-47
2023/10/03 10:56:25;;;;;;;8.10;2.50;;;;;;;14.40;100.00;101411.81;5013599;28;20559;-47
2023/10/03 10:59:16;;;;;;;6.75;2.60;;;;;;;14.33;100.00;101431.53;5011163;28;20045;-47
2023/10/03 11:01:41;;;;;;;6.30;2.58;;;;;;;14.26;100.00;101428.19;4979781;28;20038;-48
2023/10/03 11:04:07;;;;;;;8.70;2.50;;;;;;;14.19;100.00;101439.94;4993929;28;20034;-45
2023/10/03 11:06:32;;;;;;;8.93;3.08;;;;;;;14.13;100.00;101449.91;4976717;28;20041;-46
2023/10/03 11:08:58;;;;;;;13.82;3.53;;;;;;;14.25;100.00;101457.38;4993942;28;20038;-46
2023/10/03 11:11:35;;;;;;;6.43;2.78;;;;;;;14.09;100.00;101427.97;4993590;28;20052;-50
2023/10/03 11:14:01;;;;;;;9.02;2.75;;;;;;;13.76;100.00;101390.38;5004658;28;20033;-45
2023/10/03 11:16:27;;;;;;;5.85;2.25;;;;;;;14.22;100.00;101458.34;5001276;28;20049;-46
2023/10/03 11:18:54;;;;;;;10.93;2.95;;;;;;;13.95;100.00;101395.88;5005969;28;20072;-46
2023/10/03 11:21:23;;;;;;;14.75;3.47;;;;;;;14.35;100.00;101470.25;4982141;28;20031;-49
2023/10/03 11:24:12;;;;;;;7.88;2.80;;;;;;;14.54;100.00;101478.34;4983896;28;20398;-50
2023/10/03 11:26:59;;;;;;;12.90;4.25;;;;;;;14.59;100.00;101439.31;4976279;28;20034;-47
2023/10/03 11:29:38;;;;;;;9.15;3.40;;;;;;;14.85;100.00;101459.47;5001336;28;20425;-47